Share

Blytheville, AR

KC0UFP WX (KMOKENNE4) Elev 259 ft | 36.21 °N, 90.07 °W | Change Station
Active Advisory: Flood Advisory

Current weather conditions updated 10 minutes ago

Clear
Clear
52.2 °F
Feels Like 52.2 °F
N
2.7
Wind Variable Wind from NE
Sunrise 6:22 AM
Sunset 7:35 PM
Moon Waning Gibbous

Today is forecast to be Warmer than yesterday.

Pressure 30.25 in
Visibility 9.0 miles
Clouds Clear
Dew Point 48 °F
Humidity 86%
Rainfall 0.00 in
Snow Depth Not available.
UV 0 out of 16
Pollen 9.50 out of 12
Air Quality Not available.
Flu Activity Sporadic
METAR KDYR 181155Z 02003KT 9SM CLR 11/04 A3025 RMK AO1 10130 20110 54000

More Conditions Fewer Conditions

Pressure 30.25 in
Visibility 9.0 miles
Clouds Clear
Dew Point 48 °F
Humidity 86%
Rainfall 0.00 in
Snow Depth Not available.
UV 0 out of 16
Pollen 9.50 out of 12
Air Quality Not available.
Flu Activity Sporadic
METAR KDYR 181155Z 02003KT 9SM CLR 11/04 A3025 RMK AO1 10130 20110 54000

More Conditions Fewer Conditions

10-Day Forecast

Almanac

Astronomy

Apr. 18, 2014 Rise Set
Actual Time 6:22 AM CDT 7:35 PM CDT
Civil Twilight 5:56 AM CDT 8:02 PM CDT
Nautical Twilight 5:24 AM CDT 8:34 PM CDT
Astronomical Twilight 4:51 AM CDT 9:07 PM CDT
Moon 11:16 PM CDT 8:48 AM CDT
Length of Visible Light 14h 06m
Length of Day
13h 13m
Tomorrow will be 2m 7s longer.
Waning Gibbous, 88% of the Moon is Illuminated
Today
Waning Gibbous
Apr 22
Last Quarter
Apr 29
New
May 6
First Quarter
May 14
Full

Today's Extremes

State Highs State Lows

Community

  • SUNRISE THROUGH THE TREES.
    SUNRISE THROUGH THE TREES.
  • Dog Wood Blossoms
    Dog Wood Blossoms
  • Morning Light
    Morning Light
  • New Day
    New Day
  • Lake Michigan Sunrise
    Lake Michigan Sunrise

WunderPhotos

Upload Photos

1,702,333 photos uploaded!

Nearby

Snow Depth

Station Depth Elevation
No new snow has been reported.

Coastal Water Temperatures

Place Temperature
No Stations Reporting

Earthquake Activity

City Distance Mag. Time & Date
No recent earthquake activity has been reported nearby.
Minimum magnitude displayed is 2.5.

Nearby Weather Stations

Station Location Temp. Dew Point Humidity Wind Precip. Elev Updated Type
KC0UFP WX, Kennett, MO 52.2 °F 48 °F 86% NE  at  2.7 mph - / hr 259 ft 6:52 AM CDT Normal
Kennett E911, Kennett, MO 53.4 °F 48 °F 81% NNE  at  0.0 mph 0.00 in / hr 269 ft 7:03 AM CDT Rapid Fire

Show More Stations Show Fewer Stations

What do you think?

We're not finished. Please let us know what you like, what you don't like, and what you are still missing.